createdAt,value
2022-11-23T00:01:36.600Z,5.85
2022-11-23T00:04:09.072Z,5.28
2022-11-23T00:06:37.405Z,8.40
2022-11-23T00:09:05.362Z,4.72
2022-11-23T00:11:35.679Z,6.22
2022-11-23T00:14:03.640Z,4.53
2022-11-23T00:16:31.736Z,4.82
2022-11-23T00:19:01.471Z,3.53
2022-11-23T00:21:31.760Z,6.57
2022-11-23T00:23:59.944Z,9.50
2022-11-23T00:26:27.733Z,6.10
2022-11-23T00:28:55.539Z,7.93
2022-11-23T00:31:27.880Z,7.32
2022-11-23T00:33:56.593Z,7.07
2022-11-23T00:36:27.755Z,5.50
2022-11-23T00:38:56.052Z,9.93
2022-11-23T00:41:25.852Z,6.47
2022-11-23T00:43:55.276Z,5.07
2022-11-23T00:46:25.418Z,6.32
2022-11-23T00:48:55.335Z,6.25
2022-11-23T00:51:32.089Z,6.30
2022-11-23T00:54:00.687Z,4.88
2022-11-23T00:56:29.250Z,6.18
2022-11-23T00:58:58.601Z,5.38
2022-11-23T01:01:29.478Z,6.05
2022-11-23T01:03:58.853Z,5.18
2022-11-23T01:06:36.062Z,4.93
2022-11-23T01:09:14.531Z,8.10
2022-11-23T01:11:42.450Z,7.22
2022-11-23T01:14:10.567Z,3.47
2022-11-23T01:16:41.848Z,6.13
2022-11-23T01:19:16.491Z,3.55
2022-11-23T01:21:44.976Z,3.55
2022-11-23T01:24:15.423Z,5.82
2022-11-23T01:26:44.344Z,3.88
2022-11-23T01:29:12.802Z,4.75
2022-11-23T01:31:46.196Z,3.95
2022-11-23T01:34:16.163Z,5.97
2022-11-23T01:36:44.973Z,3.17
2022-11-23T01:39:13.392Z,4.55
2022-11-23T01:41:43.510Z,3.88
2022-11-23T01:44:29.728Z,3.95
2022-11-23T01:47:05.258Z,3.63
2022-11-23T01:49:37.652Z,3.92
2022-11-23T01:52:10.611Z,5.40
2022-11-23T01:54:46.274Z,3.80
2022-11-23T01:57:19.406Z,5.13
2022-11-23T01:59:48.028Z,2.85
2022-11-23T02:02:17.077Z,4.03
2022-11-23T02:04:47.948Z,10.38
2022-11-23T02:07:17.846Z,4.43
2022-11-23T02:09:46.161Z,5.07
2022-11-23T02:12:14.776Z,6.15
2022-11-23T02:14:45.381Z,5.57
2022-11-23T02:17:13.731Z,4.30
2022-11-23T02:20:06.071Z,4.78
2022-11-23T02:22:39.150Z,3.90
2022-11-23T02:25:38.723Z,7.25
2022-11-23T02:28:06.885Z,5.65
2022-11-23T02:30:36.902Z,3.80
2022-11-23T02:33:08.409Z,2.47
2022-11-23T02:35:36.516Z,3.97
2022-11-23T02:38:07.337Z,4.07
2022-11-23T02:40:37.670Z,2.55
2022-11-23T02:43:05.625Z,5.43
2022-11-23T02:46:00.226Z,4.95
2022-11-23T02:48:28.058Z,2.55
2022-11-23T02:50:55.735Z,2.30
2022-11-23T02:53:25.071Z,4.30
2022-11-23T02:55:55.157Z,3.55
2022-11-23T02:58:25.155Z,5.18
2022-11-23T03:00:53.168Z,2.75
2022-11-23T03:03:21.023Z,2.67
2022-11-23T03:05:48.848Z,3.90
2022-11-23T03:08:16.778Z,3.25
2022-11-23T03:10:44.733Z,3.80
2022-11-23T03:13:12.732Z,3.65
2022-11-23T03:15:41.702Z,3.42
2022-11-23T03:18:11.150Z,2.92
2022-11-23T03:20:39.900Z,2.53
2022-11-23T03:23:07.736Z,3.03
2022-11-23T03:25:35.660Z,4.80
2022-11-23T03:28:05.918Z,5.32
2022-11-23T03:30:34.592Z,3.55
2022-11-23T03:33:05.274Z,2.88
2022-11-23T03:35:33.320Z,5.80
2022-11-23T03:38:36.238Z,7.68
2022-11-23T03:41:10.574Z,3.97
2022-11-23T03:43:50.513Z,3.50
2022-11-23T03:46:19.188Z,6.75
2022-11-23T03:48:47.147Z,2.22
2022-11-23T03:51:15.041Z,2.90
2022-11-23T03:53:42.998Z,5.40
2022-11-23T03:56:11.397Z,3.92
2022-11-23T03:58:43.645Z,7.20
2022-11-23T04:01:16.030Z,5.90
2022-11-23T04:03:46.955Z,5.75
2022-11-23T04:06:22.392Z,3.03
2022-11-23T04:09:09.123Z,3.47
2022-11-23T04:11:48.395Z,1.95
2022-11-23T04:14:16.336Z,3.15
2022-11-23T04:16:44.905Z,5.60
2022-11-23T04:19:13.025Z,5.07
2022-11-23T04:21:41.099Z,4.65
2022-11-23T04:24:09.847Z,4.00
2022-11-23T04:26:43.625Z,7.28
2022-11-23T04:29:12.670Z,5.50
2022-11-23T04:31:45.488Z,1.55
2022-11-23T04:34:16.012Z,2.25
2022-11-23T04:36:44.052Z,2.13
2022-11-23T04:39:13.556Z,3.20
2022-11-23T04:42:01.624Z,1.33
2022-11-23T04:44:31.138Z,2.60
2022-11-23T04:47:03.733Z,3.28
2022-11-23T04:49:33.975Z,2.88
2022-11-23T04:52:02.190Z,2.90
2022-11-23T04:54:35.666Z,2.75
2022-11-23T04:57:07.706Z,3.92
2022-11-23T04:59:35.781Z,1.85
2022-11-23T05:02:03.966Z,3.53
2022-11-23T05:04:47.852Z,2.47
2022-11-23T05:07:17.441Z,1.02
2022-11-23T05:09:51.395Z,2.10
2022-11-23T05:12:21.845Z,2.38
2022-11-23T05:14:49.753Z,1.77
2022-11-23T05:17:22.754Z,2.28
2022-11-23T05:19:53.336Z,2.25
2022-11-23T05:22:22.450Z,2.13
2022-11-23T05:24:50.408Z,4.15
2022-11-23T05:27:22.045Z,1.88
2022-11-23T05:29:50.353Z,2.88
2022-11-23T05:32:18.890Z,3.05
2022-11-23T05:34:47.002Z,4.07
2022-11-23T05:37:16.916Z,1.90
2022-11-23T05:39:57.557Z,2.58
2022-11-23T05:42:26.026Z,2.83
2022-11-23T05:44:57.808Z,2.42
2022-11-23T05:47:34.298Z,3.83
2022-11-23T05:50:06.579Z,2.88
2022-11-23T05:52:35.971Z,2.00
2022-11-23T05:55:03.959Z,4.45
2022-11-23T05:57:31.868Z,3.47
2022-11-23T05:59:59.695Z,2.95
2022-11-23T06:02:41.416Z,4.50
2022-11-23T06:05:11.684Z,7.05
2022-11-23T06:07:53.518Z,2.95
2022-11-23T06:10:25.952Z,2.70
2022-11-23T06:12:54.448Z,17.55
2022-11-23T06:15:24.127Z,6.78
2022-11-23T06:17:52.486Z,3.20
2022-11-23T06:20:22.663Z,8.10
2022-11-23T06:22:59.307Z,6.95
2022-11-23T06:25:27.397Z,4.80
2022-11-23T06:28:07.397Z,12.30
2022-11-23T06:30:41.996Z,6.05
2022-11-23T06:33:10.011Z,8.43
2022-11-23T06:35:57.285Z,6.82
2022-11-23T06:38:28.628Z,9.55
2022-11-23T06:41:03.667Z,14.43
2022-11-23T06:43:32.888Z,11.05
2022-11-23T06:46:05.622Z,15.43
2022-11-23T06:48:38.353Z,10.27
2022-11-23T06:51:07.574Z,6.03
2022-11-23T06:53:37.248Z,12.02
2022-11-23T06:56:08.370Z,13.70
2022-11-23T06:58:37.313Z,13.57
2022-11-23T07:01:11.223Z,23.48
2022-11-23T07:03:54.974Z,12.90
2022-11-23T07:06:43.206Z,8.73
2022-11-23T07:09:21.022Z,10.85
2022-11-23T07:12:19.202Z,16.70
2022-11-23T07:14:47.086Z,13.13
2022-11-23T07:17:17.406Z,21.92
2022-11-23T07:19:46.050Z,12.85
2022-11-23T07:22:14.015Z,9.32
2022-11-23T07:24:46.490Z,12.43
2022-11-23T07:27:17.186Z,14.52
2022-11-23T07:29:46.123Z,35.00
2022-11-23T07:32:15.849Z,30.48
2022-11-23T07:34:44.083Z,33.83
2022-11-23T07:37:12.084Z,34.22
2022-11-23T07:39:56.878Z,32.15
2022-11-23T07:42:39.758Z,23.00
2022-11-23T07:45:12.905Z,23.50
2022-11-23T07:47:45.609Z,26.80
2022-11-23T07:50:14.655Z,19.02
2022-11-23T07:52:42.572Z,17.65
2022-11-23T07:55:10.740Z,21.90
2022-11-23T07:57:38.773Z,28.70
2022-11-23T08:00:07.465Z,33.15
2022-11-23T08:02:52.642Z,25.63
2022-11-23T08:05:26.788Z,21.63
2022-11-23T08:08:02.061Z,19.92
2022-11-23T08:10:31.282Z,27.38
2022-11-23T08:13:00.113Z,28.17
2022-11-23T08:15:31.077Z,24.35
2022-11-23T08:18:00.312Z,24.65
2022-11-23T08:20:29.125Z,16.92
2022-11-23T08:22:57.188Z,23.30
2022-11-23T08:25:26.460Z,15.63
2022-11-23T08:28:02.590Z,25.60
2022-11-23T08:30:31.950Z,20.67
2022-11-23T08:33:02.436Z,27.58
2022-11-23T08:35:30.573Z,17.90
2022-11-23T08:37:58.465Z,21.85
2022-11-23T08:40:26.314Z,29.70
2022-11-23T08:42:54.457Z,27.75
2022-11-23T08:45:22.470Z,30.60
2022-11-23T08:47:51.237Z,19.15
2022-11-23T08:50:21.139Z,19.42
2022-11-23T08:52:48.971Z,23.48
2022-11-23T08:55:17.562Z,25.33
2022-11-23T08:57:45.257Z,34.35
2022-11-23T09:00:13.861Z,50.67
2022-11-23T09:02:41.929Z,34.83
2022-11-23T09:05:09.863Z,41.45
2022-11-23T09:07:37.559Z,21.17
2022-11-23T09:10:06.049Z,29.00
2022-11-23T09:12:34.487Z,28.08
2022-11-23T09:15:02.389Z,22.73
2022-11-23T09:17:33.310Z,26.08
2022-11-23T09:20:01.215Z,45.92
2022-11-23T09:22:29.486Z,26.50
2022-11-23T09:24:57.235Z,39.67
2022-11-23T09:27:25.269Z,17.55
2022-11-23T09:29:53.670Z,22.35
2022-11-23T09:32:23.944Z,27.25
2022-11-23T09:34:52.382Z,25.00
2022-11-23T09:37:26.212Z,32.10
2022-11-23T09:39:54.805Z,41.85
2022-11-23T09:42:52.833Z,66.55
2022-11-23T09:45:51.002Z,61.65
2022-11-23T09:48:30.188Z,63.13
2022-11-23T09:51:08.522Z,64.15
2022-11-23T09:53:54.183Z,54.90
2022-11-23T09:56:28.628Z,62.55
2022-11-23T09:59:02.758Z,55.45
2022-11-23T10:01:33.216Z,59.97
2022-11-23T10:04:01.218Z,48.58
2022-11-23T10:06:31.621Z,49.15
2022-11-23T10:09:19.717Z,53.88
2022-11-23T10:12:11.307Z,43.03
2022-11-23T10:15:17.282Z,50.78
2022-11-23T10:17:58.665Z,49.38
2022-11-23T10:20:44.675Z,40.72
2022-11-23T10:23:18.988Z,34.03
2022-11-23T10:25:51.547Z,30.27
2022-11-23T10:28:22.374Z,31.67
2022-11-23T10:31:05.162Z,28.52
2022-11-23T10:33:47.806Z,36.75
2022-11-23T10:36:16.426Z,34.40
2022-11-23T10:38:45.346Z,27.35
2022-11-23T10:41:15.622Z,35.88
2022-11-23T10:43:46.073Z,40.17
2022-11-23T10:46:34.136Z,38.20
2022-11-23T10:49:17.315Z,32.92
2022-11-23T10:52:00.152Z,26.00
2022-11-23T10:54:52.570Z,43.40
2022-11-23T10:57:37.221Z,27.08
2022-11-23T11:00:16.939Z,39.47
2022-11-23T11:02:47.506Z,35.83
2022-11-23T11:06:06.959Z,35.03
2022-11-23T11:08:20.830Z,40.67
2022-11-23T11:11:12.962Z,27.45
2022-11-23T11:13:48.765Z,21.05
2022-11-23T11:16:34.019Z,29.88
2022-11-23T11:19:23.421Z,51.00
2022-11-23T11:21:53.528Z,40.30
2022-11-23T11:24:33.939Z,33.33
2022-11-23T11:27:07.882Z,30.83
2022-11-23T11:29:49.554Z,21.58
2022-11-23T11:32:42.474Z,26.48
2022-11-23T11:35:30.094Z,28.75
2022-11-23T11:38:24.993Z,22.40
2022-11-23T11:40:53.844Z,30.23
2022-11-23T11:43:35.007Z,30.10
2022-11-23T11:46:32.343Z,21.35
2022-11-23T11:49:13.324Z,22.35
2022-11-23T11:51:46.527Z,19.08
2022-11-23T11:54:26.595Z,21.00
2022-11-23T11:57:05.796Z,20.92
2022-11-23T11:59:43.119Z,30.65
2022-11-23T12:02:30.549Z,12.75
2022-11-23T12:05:24.831Z,22.33
2022-11-23T12:07:58.404Z,14.88
2022-11-23T12:10:29.119Z,13.65
2022-11-23T12:12:57.068Z,17.08
2022-11-23T12:15:52.824Z,28.05
2022-11-23T12:21:19.433Z,13.40
2022-11-23T12:24:18.389Z,11.73
2022-11-23T12:26:57.702Z,9.95
2022-11-23T12:29:56.402Z,10.45
2022-11-23T12:32:29.810Z,16.98
2022-11-23T12:35:16.457Z,15.57
2022-11-23T12:37:59.662Z,12.82
2022-11-23T12:40:51.966Z,16.20
2022-11-23T12:43:36.453Z,14.45
2022-11-23T12:46:15.280Z,10.63
2022-11-23T12:49:20.021Z,14.35
2022-11-23T12:52:06.593Z,12.57
2022-11-23T12:54:40.057Z,14.30
2022-11-23T12:57:23.239Z,12.68
2022-11-23T12:59:51.039Z,11.32
2022-11-23T13:02:41.247Z,24.40
2022-11-23T13:05:27.416Z,12.77
2022-11-23T13:08:16.695Z,14.82
2022-11-23T13:11:18.945Z,14.32
2022-11-23T13:13:59.584Z,17.52
2022-11-23T13:16:55.018Z,23.15
2022-11-23T13:19:32.080Z,13.60
2022-11-23T13:22:00.488Z,16.95
2022-11-23T13:24:38.032Z,22.90
2022-11-23T13:27:14.955Z,18.65
2022-11-23T13:30:07.996Z,20.10
2022-11-23T13:32:46.485Z,18.67
2022-11-23T13:35:18.086Z,15.50
2022-11-23T13:37:58.082Z,20.75
2022-11-23T13:40:29.756Z,12.88
2022-11-23T13:43:14.908Z,14.70
2022-11-23T13:45:43.035Z,14.75
2022-11-23T13:48:19.381Z,20.83
2022-11-23T13:51:00.639Z,23.65
2022-11-23T13:53:36.154Z,15.25
2022-11-23T13:56:36.137Z,16.45
2022-11-23T13:59:22.824Z,14.40
2022-11-23T14:02:09.127Z,15.93
2022-11-23T14:04:44.190Z,11.60
2022-11-23T14:10:15.310Z,19.35
2022-11-23T14:13:00.939Z,15.40
2022-11-23T14:15:32.781Z,14.50
2022-11-23T14:18:22.489Z,10.07
2022-11-23T14:21:12.199Z,15.32
2022-11-23T14:24:16.025Z,14.93
2022-11-23T14:27:45.845Z,22.77
2022-11-23T14:30:21.618Z,12.10
2022-11-23T14:33:26.524Z,21.08
2022-11-23T14:36:16.973Z,18.33
2022-11-23T14:38:54.155Z,11.57
2022-11-23T14:41:25.042Z,12.18
2022-11-23T14:43:53.497Z,14.57
2022-11-23T14:46:25.015Z,10.93
2022-11-23T14:48:53.351Z,15.35
2022-11-23T14:51:26.881Z,14.70
2022-11-23T14:53:59.671Z,6.93
2022-11-23T14:56:37.990Z,14.43
2022-11-23T14:59:17.782Z,8.07
2022-11-23T15:01:55.772Z,11.82
2022-11-23T15:04:37.247Z,12.88
2022-11-23T15:07:14.520Z,10.63
2022-11-23T15:10:09.466Z,7.00
2022-11-23T15:12:45.688Z,15.47
2022-11-23T15:15:28.065Z,9.95
2022-11-23T15:18:00.893Z,8.68
2022-11-23T15:20:35.663Z,5.38
2022-11-23T15:25:32.967Z,9.68
2022-11-23T15:28:00.776Z,9.40
2022-11-23T15:30:30.918Z,8.15
2022-11-23T15:33:08.508Z,10.15
2022-11-23T15:35:38.617Z,7.47
2022-11-23T15:38:12.072Z,5.60
2022-11-23T15:40:43.323Z,6.50
2022-11-23T15:43:17.688Z,10.07
2022-11-23T15:45:45.650Z,11.25
2022-11-23T15:48:29.292Z,14.45
2022-11-23T15:51:02.577Z,16.15
2022-11-23T15:53:53.869Z,21.52
2022-11-23T15:56:38.524Z,13.07
2022-11-23T15:59:36.176Z,19.80
2022-11-23T16:02:07.359Z,25.10
2022-11-23T16:04:40.893Z,29.67
2022-11-23T16:07:27.102Z,24.15
2022-11-23T16:10:44.965Z,19.70
2022-11-23T16:13:36.190Z,14.93
2022-11-23T16:16:14.408Z,9.15
2022-11-23T16:18:52.681Z,16.88
2022-11-23T16:21:21.794Z,30.92
2022-11-23T16:23:56.918Z,21.80
2022-11-23T16:26:32.369Z,24.33
2022-11-23T16:29:02.240Z,24.67
2022-11-23T16:31:52.641Z,45.35
2022-11-23T16:34:21.053Z,26.17
2022-11-23T16:36:49.257Z,18.85
2022-11-23T16:39:17.220Z,27.83
2022-11-23T16:41:44.971Z,36.92
2022-11-23T16:44:12.899Z,37.67
2022-11-23T16:46:43.724Z,31.33
2022-11-23T16:49:23.531Z,20.02
2022-11-23T16:51:57.398Z,19.08
2022-11-23T16:54:25.801Z,20.57
2022-11-23T16:56:54.650Z,15.48
2022-11-23T16:59:26.348Z,10.13
2022-11-23T17:01:57.250Z,15.50
2022-11-23T17:04:26.165Z,21.73
2022-11-23T17:06:54.123Z,12.32
2022-11-23T17:09:22.078Z,18.45
2022-11-23T17:11:52.738Z,14.60
2022-11-23T17:14:24.116Z,11.80
2022-11-23T17:16:54.665Z,20.35
2022-11-23T17:19:22.739Z,10.95
2022-11-23T17:21:50.670Z,8.10
2022-11-23T17:24:18.597Z,15.88
2022-11-23T17:26:47.964Z,8.05
2022-11-23T17:29:19.713Z,9.95
2022-11-23T17:31:48.460Z,15.63
2022-11-23T17:34:16.922Z,10.52
2022-11-23T17:36:45.952Z,10.48
2022-11-23T17:39:33.117Z,7.13
2022-11-23T17:42:04.836Z,10.30
2022-11-23T17:44:33.334Z,12.63
2022-11-23T17:47:01.877Z,10.35
2022-11-23T17:49:30.653Z,7.63
2022-11-23T17:51:58.788Z,10.40
2022-11-23T17:54:26.494Z,10.18
2022-11-23T17:56:54.199Z,6.65
2022-11-23T17:59:22.034Z,10.80
2022-11-23T18:01:50.071Z,17.48
2022-11-23T18:04:18.037Z,7.85
2022-11-23T18:06:45.929Z,10.25
2022-11-23T18:09:14.171Z,13.38
2022-11-23T18:11:41.993Z,11.13
2022-11-23T18:14:10.603Z,8.55
2022-11-23T18:16:38.317Z,7.78
2022-11-23T18:19:06.265Z,7.70
2022-11-23T18:21:34.080Z,10.90
2022-11-23T18:24:04.714Z,7.85
2022-11-23T18:26:32.779Z,10.30
2022-11-23T18:29:00.660Z,9.70
2022-11-23T18:31:28.856Z,17.30
2022-11-23T18:33:58.667Z,18.92
2022-11-23T18:36:26.664Z,21.45
2022-11-23T18:38:54.629Z,16.92
2022-11-23T18:41:22.777Z,15.75
2022-11-23T18:43:50.848Z,18.08
2022-11-23T18:46:21.733Z,14.88
2022-11-23T18:48:50.758Z,20.50
2022-11-23T18:51:19.429Z,14.25
2022-11-23T18:53:50.095Z,9.25
2022-11-23T18:56:18.194Z,10.02
2022-11-23T18:58:46.922Z,8.27
2022-11-23T19:01:18.002Z,9.90
2022-11-23T19:03:47.662Z,8.85
2022-11-23T19:06:17.528Z,8.10
2022-11-23T19:08:51.215Z,11.32
2022-11-23T19:11:21.575Z,7.40
2022-11-23T19:13:51.887Z,11.40
2022-11-23T19:16:24.913Z,8.98
2022-11-23T19:19:00.699Z,4.72
2022-11-23T19:21:31.215Z,4.47
2022-11-23T19:23:59.785Z,5.90
2022-11-23T19:26:29.102Z,7.70
2022-11-23T19:28:57.549Z,5.13
2022-11-23T19:31:30.118Z,4.68
2022-11-23T19:34:00.993Z,8.77
2022-11-23T19:36:30.874Z,5.28
2022-11-23T19:39:00.721Z,9.38
2022-11-23T19:41:30.771Z,5.95
2022-11-23T19:43:59.941Z,7.88
2022-11-23T19:46:29.353Z,11.43
2022-11-23T19:48:57.971Z,9.45
2022-11-23T19:51:26.956Z,7.78
2022-11-23T19:53:58.001Z,14.27
2022-11-23T19:56:29.048Z,7.15
2022-11-23T19:58:59.443Z,9.65
2022-11-23T20:01:32.091Z,6.47
2022-11-23T20:04:09.763Z,7.35
2022-11-23T20:06:39.955Z,9.90
2022-11-23T20:09:13.088Z,10.38
2022-11-23T20:11:41.945Z,8.52
2022-11-23T20:14:12.377Z,11.25
2022-11-23T20:16:40.305Z,9.85
2022-11-23T20:19:09.427Z,5.60
2022-11-23T20:21:38.153Z,10.52
2022-11-23T20:24:11.116Z,8.23
2022-11-23T20:26:39.724Z,9.52
2022-11-23T20:29:08.785Z,9.40
2022-11-23T20:31:37.146Z,8.23
2022-11-23T20:34:07.384Z,13.23
2022-11-23T20:36:37.994Z,9.07
2022-11-23T20:39:07.849Z,6.90
2022-11-23T20:41:36.983Z,10.80
2022-11-23T20:44:07.114Z,8.10
2022-11-23T20:47:00.722Z,12.50
2022-11-23T20:49:23.336Z,8.23
2022-11-23T20:51:51.037Z,10.30
2022-11-23T20:54:18.815Z,11.57
2022-11-23T20:56:46.708Z,8.52
2022-11-23T20:59:14.847Z,9.35
2022-11-23T21:01:42.862Z,6.20
2022-11-23T21:04:10.778Z,8.20
2022-11-23T21:06:39.893Z,8.00
2022-11-23T21:09:09.465Z,7.03
2022-11-23T21:11:56.124Z,11.77
2022-11-23T21:14:28.179Z,9.07
2022-11-23T21:16:59.096Z,5.40
2022-11-23T21:19:41.249Z,8.70
2022-11-23T21:22:13.864Z,6.40
2022-11-23T21:24:42.355Z,8.43
2022-11-23T21:27:13.007Z,6.53
2022-11-23T21:29:41.016Z,9.00
2022-11-23T21:32:14.904Z,8.52
2022-11-23T21:34:43.099Z,6.60
2022-11-23T21:37:12.747Z,21.80
2022-11-23T21:39:41.581Z,33.38
2022-11-23T21:42:09.333Z,18.58
2022-11-23T21:44:39.587Z,20.63
2022-11-23T21:47:07.699Z,20.65
2022-11-23T21:49:35.540Z,24.20
2022-11-23T21:52:03.552Z,15.82
2022-11-23T21:54:31.677Z,14.65
2022-11-23T21:56:59.881Z,21.70
2022-11-23T21:59:27.860Z,12.68
2022-11-23T22:02:00.558Z,17.60
2022-11-23T22:04:28.303Z,13.48
2022-11-23T22:06:56.205Z,9.32
2022-11-23T22:09:24.123Z,14.13
2022-11-23T22:11:52.130Z,21.70
2022-11-23T22:14:20.855Z,14.43
2022-11-23T22:16:56.922Z,15.50
2022-11-23T22:19:27.416Z,9.75
2022-11-23T22:21:55.147Z,13.45
2022-11-23T22:24:23.074Z,10.52
2022-11-23T22:26:50.872Z,14.18
2022-11-23T22:29:18.762Z,10.02
2022-11-23T22:31:46.807Z,10.10
2022-11-23T22:34:15.316Z,14.32
2022-11-23T22:36:43.447Z,10.55
2022-11-23T22:39:11.633Z,9.60
2022-11-23T22:41:39.755Z,9.07
2022-11-23T22:44:09.720Z,11.10
2022-11-23T22:46:38.780Z,7.18
2022-11-23T22:49:07.357Z,10.88
2022-11-23T22:51:35.588Z,9.82
2022-11-23T22:54:04.114Z,11.82
2022-11-23T22:56:32.970Z,12.55
2022-11-23T22:59:01.284Z,13.48
2022-11-23T23:01:31.022Z,15.85
2022-11-23T23:04:01.705Z,10.43
2022-11-23T23:06:33.919Z,12.77
2022-11-23T23:09:02.989Z,10.95
2022-11-23T23:11:32.314Z,14.27
2022-11-23T23:14:01.298Z,12.43
2022-11-23T23:16:30.418Z,13.55
2022-11-23T23:18:59.551Z,11.23
2022-11-23T23:21:30.667Z,10.02
2022-11-23T23:24:00.386Z,11.18
2022-11-23T23:26:28.861Z,10.65
2022-11-23T23:28:58.032Z,10.63
2022-11-23T23:31:28.237Z,9.82
2022-11-23T23:33:57.267Z,8.98
2022-11-23T23:36:25.468Z,7.90
2022-11-23T23:38:53.597Z,6.82
2022-11-23T23:41:21.601Z,8.60
2022-11-23T23:43:49.595Z,9.43
2022-11-23T23:46:17.948Z,12.88
2022-11-23T23:48:46.407Z,11.90
2022-11-23T23:51:16.795Z,12.82
2022-11-23T23:53:46.284Z,10.77
2022-11-23T23:56:23.492Z,10.30
2022-11-23T23:58:51.688Z,8.38
